Time;durP1;ratioP1;P1;durP2;ratioP2;P2;SDS_P1;SDS_P2;PMS_P1;PMS_P2;Temp;Humidity;BMP_temperature;BMP_pressure;BME280_temperature;BME280_humidity;BME280_pressure;Samples;Min_cycle;Max_cycle;Signal;HPM_P1;HPM_P2
2022/04/09 00:00:11;;;;;;;;;;;5.10;99.90;;;;;;5118427;27;19998;-79
2022/04/09 00:02:36;;;;;;;;;;;4.90;99.90;;;;;;5101790;28;19915;-79
2022/04/09 00:05:02;;;;;;;;;;;5.00;99.90;;;;;;5110771;28;19924;-79
2022/04/09 00:07:28;;;;;;;;;;;4.80;99.90;;;;;;5122969;27;19916;-79
2022/04/09 00:09:53;;;;;;;;;;;4.70;99.90;;;;;;5119252;27;19916;-79
2022/04/09 00:12:19;;;;;;;;;;;4.70;99.90;;;;;;5100897;28;20369;-79
2022/04/09 00:14:44;;;;;;;;;;;4.60;99.90;;;;;;5123830;27;19922;-79
2022/04/09 00:17:10;;;;;;;;;;;5.10;99.90;;;;;;5118426;28;19965;-79
2022/04/09 00:19:36;;;;;;;;;;;4.50;99.90;;;;;;5125569;28;19964;-79
2022/04/09 00:22:03;;;;;;;;;;;4.50;99.90;;;;;;5121801;28;19923;-78
2022/04/09 00:24:28;;;;;;;;;;;4.50;99.90;;;;;;5120437;28;19926;-80
2022/04/09 00:26:54;;;;;;;;;;;4.50;99.90;;;;;;5101367;28;19915;-80
2022/04/09 00:29:19;;;;;;;;;;;4.50;99.90;;;;;;5112314;28;19923;-79
2022/04/09 00:31:45;;;;;;;;;;;4.50;99.90;;;;;;5111509;28;20010;-80
2022/04/09 00:34:10;;;;;;;;;;;4.50;99.90;;;;;;5117916;28;20352;-80
2022/04/09 00:36:36;;;;;;;;;;;4.50;99.90;;;;;;5118165;28;19938;-79
2022/04/09 00:39:02;;;;;;;;;;;4.50;99.90;;;;;;5123502;28;19919;-79
2022/04/09 00:41:27;;;;;;;;;;;4.60;99.90;;;;;;5118021;28;19931;-79
2022/04/09 00:43:53;;;;;;;;;;;4.50;99.90;;;;;;5125626;28;19923;-79
2022/04/09 00:46:18;;;;;;;;;;;4.70;99.90;;;;;;5117782;28;20313;-79
2022/04/09 00:48:44;;;;;;;;;;;4.70;99.90;;;;;;5120440;28;19915;-79
2022/04/09 00:51:10;;;;;;;;;;;4.90;99.90;;;;;;5120938;28;19915;-79
2022/04/09 00:53:36;;;;;;;;;;;4.80;99.90;;;;;;5124985;28;20026;-79
2022/04/09 00:56:20;;;;;;;;;;;4.80;99.90;;;;;;5117975;27;19916;-79
2022/04/09 00:58:56;;;;;;;;;;;4.80;99.90;;;;;;5130016;27;19916;-79
2022/04/09 01:01:22;;;;;;;;;;;4.70;99.90;;;;;;5103216;27;19915;-80
2022/04/09 01:03:49;;;;;;;;;;;4.70;99.90;;;;;;5120586;27;19967;-79
2022/04/09 01:06:15;;;;;;;;;;;4.60;99.90;;;;;;5119210;27;19916;-79
2022/04/09 01:08:40;;;;;;;;;;;4.50;99.90;;;;;;5117223;27;19915;-80
2022/04/09 01:11:06;;;;;;;;;;;4.50;99.90;;;;;;5122162;27;20283;-79
2022/04/09 01:13:32;;;;;;;;;;;4.40;99.90;;;;;;5122903;27;19919;-80
2022/04/09 01:15:57;;;;;;;;;;;4.40;99.90;;;;;;5127172;27;20491;-79
2022/04/09 01:18:23;;;;;;;;;;;4.30;99.90;;;;;;5100196;27;20048;-79
2022/04/09 01:20:49;;;;;;;;;;;4.30;99.90;;;;;;5125029;27;19915;-79
2022/04/09 01:23:14;;;;;;;;;;;4.30;99.90;;;;;;5120250;27;20006;-80
2022/04/09 01:25:41;;;;;;;;;;;4.30;99.90;;;;;;5125061;27;20396;-80
2022/04/09 01:28:06;;;;;;;;;;;4.50;99.90;;;;;;5127252;27;21607;-79
2022/04/09 01:30:32;;;;;;;;;;;4.20;99.90;;;;;;5125382;27;19920;-78
2022/04/09 01:32:58;;;;;;;;;;;5.00;99.90;;;;;;5121303;27;19915;-80
2022/04/09 01:35:23;;;;;;;;;;;4.40;99.90;;;;;;5117029;27;20002;-80
2022/04/09 01:37:49;;;;;;;;;;;4.70;99.90;;;;;;5121623;27;20259;-79
2022/04/09 01:40:14;;;;;;;;;;;4.20;99.90;;;;;;5118510;27;20002;-80
2022/04/09 01:42:40;;;;;;;;;;;4.20;99.90;;;;;;5125922;27;19915;-79
2022/04/09 01:45:06;;;;;;;;;;;4.90;99.90;;;;;;5106809;27;19920;-79
2022/04/09 01:47:33;;;;;;;;;;;4.10;99.90;;;;;;5125979;27;19919;-80
2022/04/09 01:49:59;;;;;;;;;;;4.30;99.90;;;;;;5125536;27;19968;-80
2022/04/09 01:52:25;;;;;;;;;;;4.10;99.90;;;;;;5127811;27;19915;-80
2022/04/09 01:54:50;;;;;;;;;;;4.00;99.90;;;;;;5101122;28;20298;-80
2022/04/09 01:57:16;;;;;;;;;;;4.10;99.90;;;;;;5124059;27;19915;-80
2022/04/09 01:59:43;;;;;;;;;;;4.00;99.90;;;;;;5126735;27;19966;-80
2022/04/09 02:02:09;;;;;;;;;;;4.00;99.90;;;;;;5122957;27;19938;-80
2022/04/09 02:04:35;;;;;;;;;;;4.00;99.90;;;;;;5122722;27;19928;-79
2022/04/09 02:07:01;;;;;;;;;;;4.60;99.90;;;;;;5112883;28;19922;-79
2022/04/09 02:09:26;;;;;;;;;;;4.00;99.90;;;;;;5119827;27;19920;-79
2022/04/09 02:11:52;;;;;;;;;;;4.10;99.90;;;;;;5122515;27;19920;-80
2022/04/09 02:14:17;;;;;;;;;;;4.30;99.90;;;;;;5113166;27;19923;-80
2022/04/09 02:16:43;;;;;;;;;;;4.10;99.90;;;;;;5120206;27;19923;-80
2022/04/09 02:19:10;;;;;;;;;;;4.10;99.90;;;;;;5123388;27;19922;-80
2022/04/09 02:21:36;;;;;;;;;;;4.10;99.90;;;;;;5119801;27;20283;-80
2022/04/09 02:24:02;;;;;;;;;;;4.00;99.90;;;;;;5129542;27;19926;-80
2022/04/09 02:26:27;;;;;;;;;;;4.00;99.90;;;;;;5123850;27;19955;-80
2022/04/09 02:28:53;;;;;;;;;;;4.00;99.90;;;;;;5123179;27;19919;-80
2022/04/09 02:31:20;;;;;;;;;;;3.90;99.90;;;;;;5131377;27;19923;-80
2022/04/09 02:33:46;;;;;;;;;;;3.90;99.90;;;;;;5113672;27;20613;-80
2022/04/09 02:36:12;;;;;;;;;;;3.90;99.90;;;;;;5117429;27;19958;-80
2022/04/09 02:38:39;;;;;;;;;;;3.90;99.90;;;;;;5121790;27;19929;-80
2022/04/09 02:41:05;;;;;;;;;;;3.80;99.90;;;;;;5119938;27;19915;-80
2022/04/09 02:43:31;;;;;;;;;;;4.20;99.90;;;;;;5124858;27;20006;-80
2022/04/09 02:45:57;;;;;;;;;;;3.80;99.90;;;;;;5122883;27;20001;-80
2022/04/09 02:48:23;;;;;;;;;;;3.90;99.90;;;;;;5123982;27;19919;-80
2022/04/09 02:50:48;;;;;;;;;;;3.90;99.90;;;;;;5121634;27;20396;-80
2022/04/09 02:53:14;;;;;;;;;;;3.90;99.90;;;;;;5100318;28;19922;-79
2022/04/09 02:55:40;;;;;;;;;;;3.90;99.90;;;;;;5115448;27;20010;-79
2022/04/09 02:58:06;;;;;;;;;;;4.00;99.90;;;;;;5129701;27;19964;-80
2022/04/09 03:00:31;;;;;;;;;;;3.90;99.90;;;;;;5119596;27;19920;-80
2022/04/09 03:02:57;;;;;;;;;;;3.90;99.90;;;;;;5121468;27;20363;-80
2022/04/09 03:05:22;;;;;;;;;;;3.90;99.90;;;;;;5120160;27;19972;-79
2022/04/09 03:07:48;;;;;;;;;;;4.30;99.90;;;;;;5100289;27;20041;-80
2022/04/09 03:10:14;;;;;;;;;;;4.20;99.90;;;;;;5117316;27;19920;-79
2022/04/09 03:12:43;;;;;;;;;;;4.10;99.90;;;;;;5101021;27;19957;-79
2022/04/09 03:15:08;;;;;;;;;;;4.10;99.90;;;;;;5122227;27;20266;-79
2022/04/09 03:17:34;;;;;;;;;;;4.10;99.90;;;;;;5118331;27;19915;-79
2022/04/09 03:19:59;;;;;;;;;;;4.20;99.90;;;;;;5121040;27;19940;-79
2022/04/09 03:22:27;;;;;;;;;;;4.10;99.90;;;;;;5119192;27;19922;-79
2022/04/09 03:24:56;;;;;;;;;;;4.10;99.90;;;;;;5115448;27;19920;-79
2022/04/09 03:27:21;;;;;;;;;;;4.10;99.90;;;;;;5102377;27;19922;-79
2022/04/09 03:29:47;;;;;;;;;;;4.10;99.90;;;;;;5122557;27;20283;-80
2022/04/09 03:32:13;;;;;;;;;;;4.10;99.90;;;;;;5113934;27;20294;-80
2022/04/09 03:34:39;;;;;;;;;;;4.10;99.90;;;;;;5118447;27;19915;-79
2022/04/09 03:37:04;;;;;;;;;;;4.20;99.90;;;;;;5122183;27;20431;-79
2022/04/09 03:39:30;;;;;;;;;;;4.30;99.90;;;;;;5103837;27;19965;-79
2022/04/09 03:41:56;;;;;;;;;;;4.10;99.90;;;;;;5117143;27;19916;-80
2022/04/09 03:44:22;;;;;;;;;;;4.20;99.90;;;;;;5113454;28;20367;-80
2022/04/09 03:46:48;;;;;;;;;;;4.00;99.90;;;;;;5120643;27;19937;-79
2022/04/09 03:49:13;;;;;;;;;;;4.60;99.90;;;;;;5119514;27;19916;-79
2022/04/09 03:51:39;;;;;;;;;;;4.60;99.90;;;;;;5104043;27;19926;-79
2022/04/09 03:54:04;;;;;;;;;;;3.90;99.90;;;;;;5124721;27;19926;-80
2022/04/09 03:56:30;;;;;;;;;;;3.90;99.90;;;;;;5122861;27;19915;-80
2022/04/09 03:58:55;;;;;;;;;;;3.90;99.90;;;;;;5118508;27;19923;-80
2022/04/09 04:01:24;;;;;;;;;;;4.10;99.90;;;;;;5116608;27;19919;-80
2022/04/09 04:03:50;;;;;;;;;;;3.90;99.90;;;;;;5118450;27;19927;-80
2022/04/09 04:06:16;;;;;;;;;;;3.90;99.90;;;;;;5113468;28;19919;-80
2022/04/09 04:08:41;;;;;;;;;;;4.50;99.90;;;;;;5084573;27;19923;-80
2022/04/09 04:11:07;;;;;;;;;;;4.50;99.90;;;;;;5120353;27;19942;-80
2022/04/09 04:13:35;;;;;;;;;;;4.10;99.90;;;;;;5102356;28;19949;-80
2022/04/09 04:16:03;;;;;;;;;;;4.60;99.90;;;;;;5118831;27;19953;-79
2022/04/09 04:18:28;;;;;;;;;;;3.60;99.90;;;;;;5127983;27;20319;-79
2022/04/09 04:20:54;;;;;;;;;;;3.70;99.90;;;;;;5097850;28;19919;-79
2022/04/09 04:23:20;;;;;;;;;;;4.10;99.90;;;;;;5103419;28;20407;-79
2022/04/09 04:25:46;;;;;;;;;;;3.80;99.90;;;;;;5123171;28;19919;-80
2022/04/09 04:28:11;;;;;;;;;;;3.70;99.90;;;;;;5107831;27;20354;-79
2022/04/09 04:30:37;;;;;;;;;;;3.70;99.90;;;;;;5114985;27;20370;-80
2022/04/09 04:33:02;;;;;;;;;;;3.70;99.90;;;;;;5115105;27;19933;-80
2022/04/09 04:35:28;;;;;;;;;;;3.70;99.90;;;;;;5124281;27;20287;-80
2022/04/09 04:37:54;;;;;;;;;;;3.70;99.90;;;;;;5121005;27;19922;-80
2022/04/09 04:40:19;;;;;;;;;;;3.70;99.90;;;;;;5127303;27;19916;-80
2022/04/09 04:42:45;;;;;;;;;;;3.70;99.90;;;;;;5124081;27;20049;-80
2022/04/09 04:45:11;;;;;;;;;;;3.70;99.90;;;;;;5127151;27;19994;-80
2022/04/09 04:47:47;;;;;;;;;;;3.70;99.90;;;;;;5119873;27;20351;-80
2022/04/09 04:50:13;;;;;;;;;;;3.70;99.90;;;;;;5107714;27;19919;-80
2022/04/09 04:52:39;;;;;;;;;;;3.60;99.90;;;;;;5126315;27;19916;-80
2022/04/09 04:55:05;;;;;;;;;;;3.60;99.90;;;;;;5125227;27;19922;-79
2022/04/09 04:57:38;;;;;;;;;;;3.60;99.90;;;;;;5129777;27;19916;-79
2022/04/09 05:00:05;;;;;;;;;;;3.80;99.90;;;;;;5124951;27;21397;-80
2022/04/09 05:02:30;;;;;;;;;;;3.60;99.90;;;;;;5124238;27;19916;-80
2022/04/09 05:04:56;;;;;;;;;;;3.60;99.90;;;;;;5105971;27;19926;-80
2022/04/09 05:07:23;;;;;;;;;;;3.60;99.90;;;;;;5125530;27;19972;-80
2022/04/09 05:09:48;;;;;;;;;;;3.60;99.90;;;;;;5121277;27;19936;-79
2022/04/09 05:12:14;;;;;;;;;;;3.60;99.90;;;;;;5119446;27;20043;-80
2022/04/09 05:14:41;;;;;;;;;;;3.60;99.90;;;;;;5124093;27;19922;-80
2022/04/09 05:17:07;;;;;;;;;;;3.70;99.90;;;;;;5121946;27;19916;-80
2022/04/09 05:19:32;;;;;;;;;;;3.60;99.90;;;;;;5126687;27;19923;-80
2022/04/09 05:21:58;;;;;;;;;;;3.70;99.90;;;;;;5118868;27;19924;-78
2022/04/09 05:24:24;;;;;;;;;;;3.80;99.90;;;;;;5126976;27;20271;-80
2022/04/09 05:26:49;;;;;;;;;;;4.00;99.90;;;;;;5122667;27;19916;-80
2022/04/09 05:29:15;;;;;;;;;;;4.00;99.90;;;;;;5123163;27;19923;-79
2022/04/09 05:31:43;;;;;;;;;;;4.00;99.90;;;;;;5111493;27;20431;-79
2022/04/09 05:34:08;;;;;;;;;;;4.10;99.90;;;;;;5118885;27;19915;-79
2022/04/09 05:36:34;;;;;;;;;;;4.10;99.90;;;;;;5112979;28;19922;-79
2022/04/09 05:38:59;;;;;;;;;;;4.10;99.90;;;;;;5120505;27;20385;-80
2022/04/09 05:41:25;;;;;;;;;;;4.10;99.90;;;;;;5118344;27;19938;-80
2022/04/09 05:43:50;;;;;;;;;;;4.80;99.90;;;;;;5126952;27;20412;-80
2022/04/09 05:46:16;;;;;;;;;;;4.30;99.90;;;;;;5116417;27;19930;-80
2022/04/09 05:48:41;;;;;;;;;;;4.20;99.90;;;;;;5123560;27;20383;-80
2022/04/09 05:51:07;;;;;;;;;;;4.30;99.90;;;;;;5119567;27;19915;-81
2022/04/09 05:53:32;;;;;;;;;;;4.50;99.90;;;;;;5089033;27;19919;-80
2022/04/09 05:55:58;;;;;;;;;;;4.70;99.90;;;;;;5117602;27;21568;-79
2022/04/09 05:58:24;;;;;;;;;;;4.10;99.90;;;;;;5125531;27;19919;-79
2022/04/09 06:00:50;;;;;;;;;;;3.90;99.90;;;;;;5108014;28;19919;-79
2022/04/09 06:03:17;;;;;;;;;;;3.80;99.90;;;;;;5132313;27;20256;-79
2022/04/09 06:05:43;;;;;;;;;;;4.20;99.90;;;;;;5119483;27;19981;-79
2022/04/09 06:08:08;;;;;;;;;;;3.70;99.90;;;;;;5127144;27;19950;-79
2022/04/09 06:10:34;;;;;;;;;;;3.70;99.90;;;;;;5129200;27;20275;-79
2022/04/09 06:12:59;;;;;;;;;;;3.90;99.90;;;;;;5118773;27;19915;-79
2022/04/09 06:15:25;;;;;;;;;;;3.90;99.90;;;;;;5120241;27;19916;-80
2022/04/09 06:17:51;;;;;;;;;;;4.50;99.90;;;;;;5106052;27;19915;-81
2022/04/09 06:20:16;;;;;;;;;;;4.20;99.90;;;;;;5127568;27;20018;-80
2022/04/09 06:22:42;;;;;;;;;;;4.20;99.90;;;;;;5117785;27;19931;-79
2022/04/09 06:25:08;;;;;;;;;;;4.30;99.90;;;;;;5111048;27;19919;-79
2022/04/09 06:27:37;;;;;;;;;;;4.50;99.90;;;;;;5117853;27;19964;-79
2022/04/09 06:30:06;;;;;;;;;;;4.80;99.90;;;;;;5127933;27;19928;-79
2022/04/09 06:32:31;;;;;;;;;;;5.00;99.90;;;;;;5105637;27;19958;-80
2022/04/09 06:34:57;;;;;;;;;;;5.10;99.90;;;;;;5105497;28;19970;-80
2022/04/09 06:37:22;;;;;;;;;;;5.30;99.90;;;;;;5127473;27;19923;-80
2022/04/09 06:39:48;;;;;;;;;;;5.50;99.90;;;;;;5117485;27;19915;-81
2022/04/09 06:42:14;;;;;;;;;;;5.30;99.90;;;;;;5129237;27;19919;-79
2022/04/09 06:44:39;;;;;;;;;;;5.60;99.90;;;;;;5106604;27;19920;-78
2022/04/09 06:47:08;;;;;;;;;;;5.60;99.90;;;;;;5119986;27;19922;-79
2022/04/09 06:49:35;;;;;;;;;;;5.60;99.90;;;;;;5115319;27;19938;-81
2022/04/09 06:52:01;;;;;;;;;;;5.60;99.90;;;;;;5124587;27;19965;-81
2022/04/09 06:54:26;;;;;;;;;;;5.40;99.90;;;;;;5126253;27;19959;-81
2022/04/09 06:56:52;;;;;;;;;;;5.50;99.90;;;;;;5122390;27;19920;-81
2022/04/09 06:59:18;;;;;;;;;;;5.60;99.90;;;;;;5118618;27;19915;-81
2022/04/09 07:01:43;;;;;;;;;;;5.90;99.90;;;;;;5106570;27;19916;-80
2022/04/09 07:04:09;;;;;;;;;;;6.30;99.90;;;;;;5123569;27;19923;-79
2022/04/09 07:06:34;;;;;;;;;;;6.80;99.90;;;;;;5122117;27;19919;-82
2022/04/09 07:09:00;;;;;;;;;;;7.50;99.90;;;;;;5116634;27;19973;-80
2022/04/09 07:11:26;;;;;;;;;;;7.90;99.90;;;;;;5114071;27;19915;-79
2022/04/09 07:13:52;;;;;;;;;;;8.30;99.90;;;;;;5115111;27;19926;-80
2022/04/09 07:16:18;;;;;;;;;;;8.80;99.90;;;;;;5126118;27;19915;-81
2022/04/09 07:18:43;;;;;;;;;;;9.00;99.90;;;;;;5122814;27;19923;-80
2022/04/09 07:21:09;;;;;;;;;;;8.70;99.90;;;;;;5119810;27;19915;-80
2022/04/09 07:23:35;;;;;;;;;;;8.30;99.90;;;;;;5107458;27;19964;-79
2022/04/09 07:26:00;;;;;;;;;;;8.00;99.90;;;;;;5119927;27;19968;-78
2022/04/09 07:28:26;;;;;;;;;;;8.10;99.90;;;;;;5118561;27;20006;-78
2022/04/09 07:30:51;;;;;;;;;;;8.10;99.90;;;;;;5103808;28;19927;-80
2022/04/09 07:33:17;;;;;;;;;;;8.00;99.90;;;;;;5113069;27;19920;-79
2022/04/09 07:35:43;;;;;;;;;;;8.30;99.90;;;;;;5103636;27;20360;-80
2022/04/09 07:38:08;;;;;;;;;;;8.30;99.90;;;;;;5126666;27;20295;-81
2022/04/09 07:40:34;;;;;;;;;;;7.70;99.90;;;;;;5118198;27;19921;-80
2022/04/09 07:43:00;;;;;;;;;;;7.70;99.90;;;;;;5123874;27;19922;-80
2022/04/09 07:45:26;;;;;;;;;;;8.10;99.90;;;;;;5106052;28;19919;-81
2022/04/09 07:47:56;;;;;;;;;;;8.60;99.90;;;;;;5120758;27;20322;-81
2022/04/09 07:50:22;;;;;;;;;;;9.00;99.90;;;;;;5120236;27;20006;-79
2022/04/09 07:52:47;;;;;;;;;;;8.60;99.90;;;;;;5120403;27;19981;-80
2022/04/09 07:55:16;;;;;;;;;;;8.00;99.90;;;;;;5123385;27;19921;-79
2022/04/09 07:57:42;;;;;;;;;;;7.70;99.90;;;;;;5110052;27;19923;-80
2022/04/09 08:00:08;;;;;;;;;;;8.10;99.90;;;;;;5125043;27;20371;-82
2022/04/09 08:02:34;;;;;;;;;;;8.80;99.90;;;;;;5121341;27;19922;-82
2022/04/09 08:05:00;;;;;;;;;;;9.30;99.90;;;;;;5125263;27;20316;-83
2022/04/09 08:07:26;;;;;;;;;;;9.90;99.90;;;;;;5115602;27;19916;-82
2022/04/09 08:09:51;;;;;;;;;;;10.30;99.90;;;;;;5123517;27;19922;-82
2022/04/09 08:12:17;;;;;;;;;;;10.80;99.90;;;;;;5111758;27;19922;-83
2022/04/09 08:14:42;;;;;;;;;;;11.10;99.90;;;;;;5117853;28;19919;-83
2022/04/09 08:17:08;;;;;;;;;;;10.70;99.90;;;;;;5112923;28;19923;-83
2022/04/09 08:19:37;;;;;;;;;;;10.10;99.90;;;;;;5101235;28;19915;-83
2022/04/09 08:22:03;;;;;;;;;;;9.60;99.90;;;;;;5120040;28;20011;-81
2022/04/09 08:24:29;;;;;;;;;;;9.10;99.90;;;;;;5120393;28;20080;-82
2022/04/09 08:26:55;;;;;;;;;;;8.70;99.90;;;;;;5102410;28;20452;-83
2022/04/09 08:29:20;;;;;;;;;;;8.60;99.90;;;;;;5123224;28;20298;-84
2022/04/09 08:31:47;;;;;;;;;;;8.90;99.90;;;;;;5127356;27;19998;-83
2022/04/09 08:34:13;;;;;;;;;;;9.50;99.90;;;;;;5127431;27;20049;-81
2022/04/09 08:36:39;;;;;;;;;;;10.10;99.90;;;;;;5119383;28;19922;-81
2022/04/09 08:39:04;;;;;;;;;;;9.80;99.90;;;;;;5122222;27;19916;-82
2022/04/09 08:41:30;;;;;;;;;;;9.40;99.90;;;;;;5115179;28;20390;-82
2022/04/09 08:43:56;;;;;;;;;;;9.70;99.90;;;;;;5117422;28;19916;-81
2022/04/09 08:46:24;;;;;;;;;;;10.40;99.90;;;;;;5123260;28;19942;-82
2022/04/09 08:48:50;;;;;;;;;;;10.90;99.90;;;;;;5115021;28;20007;-82
2022/04/09 08:51:15;;;;;;;;;;;10.50;99.90;;;;;;5121796;28;20282;-82
2022/04/09 08:53:42;;;;;;;;;;;10.30;99.90;;;;;;5117942;28;19918;-81
2022/04/09 08:56:08;;;;;;;;;;;10.10;99.90;;;;;;5124880;28;20026;-82
2022/04/09 08:58:34;;;;;;;;;;;10.20;99.90;;;;;;5115993;28;19924;-83
2022/04/09 09:01:00;;;;;;;;;;;9.80;99.90;;;;;;5115157;28;19920;-83
2022/04/09 09:03:25;;;;;;;;;;;9.00;99.90;;;;;;5118765;28;19922;-82
2022/04/09 09:05:52;;;;;;;;;;;8.20;99.90;;;;;;5108494;28;19923;-82
2022/04/09 09:08:36;;;;;;;;;;;7.70;99.90;;;;;;5100762;28;19915;-83
2022/04/09 09:11:02;;;;;;;;;;;7.40;99.90;;;;;;5119561;28;19920;-83
2022/04/09 09:13:28;;;;;;;;;;;7.20;99.90;;;;;;5101419;28;19934;-84
2022/04/09 09:15:57;;;;;;;;;;;7.30;99.90;;;;;;5114419;28;19958;-81
2022/04/09 09:18:23;;;;;;;;;;;8.00;99.90;;;;;;5097512;28;19916;-80
2022/04/09 09:20:59;;;;;;;;;;;9.00;99.90;;;;;;5120940;27;19922;-82
2022/04/09 09:23:30;;;;;;;;;;;9.50;99.90;;;;;;5122981;27;19915;-83
2022/04/09 09:25:56;;;;;;;;;;;9.80;99.90;;;;;;5109101;28;19930;-82
2022/04/09 09:28:29;;;;;;;;;;;10.20;99.90;;;;;;5116172;27;19923;-80
2022/04/09 09:30:55;;;;;;;;;;;10.40;99.90;;;;;;5122462;27;19942;-81
2022/04/09 09:33:20;;;;;;;;;;;10.90;99.90;;;;;;5121234;27;19915;-82
2022/04/09 09:35:47;;;;;;;;;;;11.40;99.90;;;;;;5121830;27;19922;-81
2022/04/09 09:38:20;;;;;;;;;;;11.50;99.90;;;;;;5124823;27;19939;-81
2022/04/09 09:40:46;;;;;;;;;;;11.90;99.90;;;;;;5129505;27;20399;-82
2022/04/09 09:43:16;;;;;;;;;;;12.20;99.90;;;;;;5120983;27;19997;-82
2022/04/09 09:45:41;;;;;;;;;;;12.50;99.90;;;;;;5105915;27;20010;-82
2022/04/09 09:48:20;;;;;;;;;;;12.40;99.90;;;;;;5127757;27;20328;-81
2022/04/09 09:50:46;;;;;;;;;;;10.90;99.90;;;;;;5111634;27;19922;-83
2022/04/09 09:53:12;;;;;;;;;;;9.90;99.90;;;;;;5108340;27;19915;-83
2022/04/09 09:55:42;;;;;;;;;;;8.60;99.90;;;;;;5117717;27;19922;-84
2022/04/09 09:58:08;;;;;;;;;;;8.10;99.90;;;;;;5118154;27;19915;-84
2022/04/09 10:00:34;;;;;;;;;;;7.80;99.90;;;;;;5120726;27;19998;-84
2022/04/09 10:03:00;;;;;;;;;;;7.50;99.90;;;;;;5121475;27;20053;-84
2022/04/09 10:05:26;;;;;;;;;;;8.10;99.90;;;;;;5124707;27;19920;-83
2022/04/09 10:07:52;;;;;;;;;;;9.10;99.90;;;;;;5124855;27;19968;-82
2022/04/09 10:10:18;;;;;;;;;;;9.60;99.90;;;;;;5127823;27;19915;-81
2022/04/09 10:12:45;;;;;;;;;;;10.10;99.90;;;;;;5122693;27;20023;-82
2022/04/09 10:15:10;;;;;;;;;;;10.90;99.90;;;;;;5128063;27;19955;-82
2022/04/09 10:17:37;;;;;;;;;;;11.20;99.90;;;;;;5096235;28;19969;-84
2022/04/09 10:20:04;;;;;;;;;;;11.60;99.90;;;;;;5123420;27;19919;-83
2022/04/09 10:22:49;;;;;;;;;;;12.20;99.90;;;;;;5121325;27;20389;-83
2022/04/09 10:25:15;;;;;;;;;;;12.50;99.90;;;;;;5115911;27;19926;-82
2022/04/09 10:27:43;;;;;;;;;;;12.40;99.90;;;;;;5127517;27;19915;-81
2022/04/09 10:30:12;;;;;;;;;;;12.30;99.90;;;;;;5127248;27;19998;-82
2022/04/09 10:32:44;;;;;;;;;;;12.10;99.90;;;;;;5119004;27;19999;-82
2022/04/09 10:35:27;;;;;;;;;;;12.30;99.90;;;;;;5112885;27;19998;-82
2022/04/09 10:38:12;;;;;;;;;;;12.30;99.90;;;;;;5120353;27;20010;-82
2022/04/09 10:40:50;;;;;;;;;;;12.60;99.90;;;;;;5120147;27;19922;-81
2022/04/09 10:43:22;;;;;;;;;;;13.00;99.90;;;;;;5123009;27;19922;-82
2022/04/09 10:46:00;;;;;;;;;;;12.60;99.90;;;;;;5130683;27;19919;-83
2022/04/09 10:48:35;;;;;;;;;;;12.10;99.90;;;;;;5127576;27;20290;-82
2022/04/09 10:51:04;;;;;;;;;;;12.10;99.90;;;;;;5100851;27;19916;-82
2022/04/09 10:53:34;;;;;;;;;;;12.00;99.90;;;;;;5124980;27;19943;-79
2022/04/09 10:56:25;;;;;;;;;;;12.20;99.90;;;;;;5119610;27;19924;-82
2022/04/09 10:59:06;;;;;;;;;;;12.80;99.90;;;;;;5127701;27;19916;-80
2022/04/09 11:01:47;;;;;;;;;;;13.10;99.90;;;;;;5123590;27;20022;-83
2022/04/09 11:04:28;;;;;;;;;;;13.40;99.90;;;;;;5117866;27;19930;-81
2022/04/09 11:07:07;;;;;;;;;;;13.80;99.90;;;;;;5124788;27;19984;-81
2022/04/09 11:10:03;;;;;;;;;;;13.90;99.90;;;;;;5127461;27;19915;-80
2022/04/09 11:12:30;;;;;;;;;;;13.90;99.90;;;;;;5103651;27;19915;-80
2022/04/09 11:14:55;;;;;;;;;;;14.10;99.90;;;;;;5104532;28;19925;-80
2022/04/09 11:17:24;;;;;;;;;;;13.60;99.90;;;;;;5121139;27;19919;-80
2022/04/09 11:19:50;;;;;;;;;;;12.90;99.90;;;;;;5121717;27;19915;-80
2022/04/09 11:22:16;;;;;;;;;;;12.10;99.90;;;;;;5124763;27;19986;-82
2022/04/09 11:24:42;;;;;;;;;;;11.70;99.90;;;;;;5087587;27;19923;-82
2022/04/09 11:27:10;;;;;;;;;;;11.20;99.90;;;;;;5115213;27;19950;-81
2022/04/09 11:29:36;;;;;;;;;;;10.50;99.90;;;;;;5115492;27;19967;-82
2022/04/09 11:32:03;;;;;;;;;;;10.30;99.90;;;;;;5121383;27;19923;-81
2022/04/09 11:34:45;;;;;;;;;;;10.20;99.90;;;;;;5114442;27;19958;-82
2022/04/09 11:37:11;;;;;;;;;;;10.70;99.90;;;;;;5121762;27;19951;-81
2022/04/09 11:39:40;;;;;;;;;;;10.60;99.90;;;;;;5124893;27;20018;-80
2022/04/09 11:42:06;;;;;;;;;;;10.30;99.90;;;;;;5123112;27;19922;-82
2022/04/09 11:44:32;;;;;;;;;;;9.90;99.90;;;;;;5133347;27;19923;-81
2022/04/09 11:47:05;;;;;;;;;;;9.90;99.90;;;;;;5115279;27;19919;-82
2022/04/09 11:49:32;;;;;;;;;;;9.80;99.90;;;;;;5119763;27;19967;-82
2022/04/09 11:51:58;;;;;;;;;;;10.00;99.90;;;;;;5110405;27;19923;-82
2022/04/09 11:54:25;;;;;;;;;;;10.80;99.90;;;;;;5113529;27;19923;-82
2022/04/09 11:56:50;;;;;;;;;;;11.70;99.90;;;;;;5122012;27;19915;-80
2022/04/09 11:59:16;;;;;;;;;;;11.90;99.90;;;;;;5118578;27;19938;-82
2022/04/09 12:01:45;;;;;;;;;;;10.70;99.90;;;;;;5115779;27;19926;-82
2022/04/09 12:04:12;;;;;;;;;;;10.20;99.90;;;;;;5120361;27;19919;-82
2022/04/09 12:06:38;;;;;;;;;;;9.90;99.90;;;;;;5118654;27;19916;-81
2022/04/09 12:09:03;;;;;;;;;;;9.60;99.90;;;;;;5106230;27;20294;-82
2022/04/09 12:11:29;;;;;;;;;;;10.00;99.90;;;;;;5121079;27;19915;-82
2022/04/09 12:13:55;;;;;;;;;;;10.90;99.90;;;;;;5122820;27;19951;-82
2022/04/09 12:16:20;;;;;;;;;;;11.80;99.90;;;;;;5120043;27;19915;-81
2022/04/09 12:18:47;;;;;;;;;;;11.90;99.90;;;;;;5120848;27;19920;-82
2022/04/09 12:21:16;;;;;;;;;;;11.80;99.90;;;;;;5124858;28;19998;-81
2022/04/09 12:23:42;;;;;;;;;;;11.80;99.90;;;;;;5120593;27;20393;-81
2022/04/09 12:26:20;;;;;;;;;;;11.10;99.90;;;;;;5113212;28;19919;-82
2022/04/09 12:28:46;;;;;;;;;;;10.90;99.90;;;;;;5118010;28;20335;-81
2022/04/09 12:31:24;;;;;;;;;;;11.30;99.90;;;;;;5117833;28;19916;-82
2022/04/09 12:33:59;;;;;;;;;;;11.60;99.90;;;;;;5116477;28;19960;-82
2022/04/09 12:36:25;;;;;;;;;;;11.20;99.90;;;;;;5122554;27;19922;-81
2022/04/09 12:38:50;;;;;;;;;;;10.90;99.90;;;;;;5112680;28;20011;-81
2022/04/09 12:41:16;;;;;;;;;;;11.20;99.90;;;;;;5105921;28;19927;-80
2022/04/09 12:43:42;;;;;;;;;;;11.60;99.90;;;;;;5120816;28;20303;-80
2022/04/09 12:46:11;;;;;;;;;;;12.00;99.90;;;;;;5100386;28;19930;-80
2022/04/09 12:48:38;;;;;;;;;;;12.30;99.90;;;;;;5116828;28;20371;-81
2022/04/09 12:51:04;;;;;;;;;;;12.30;99.90;;;;;;5120170;28;19922;-81
2022/04/09 12:53:29;;;;;;;;;;;12.30;99.90;;;;;;5116101;27;20473;-81
2022/04/09 12:55:55;;;;;;;;;;;12.60;99.90;;;;;;5125496;27;20003;-82
2022/04/09 12:58:21;;;;;;;;;;;12.80;99.90;;;;;;5104971;27;19919;-81
2022/04/09 13:00:46;;;;;;;;;;;13.00;99.90;;;;;;5127748;27;20374;-81
2022/04/09 13:03:13;;;;;;;;;;;13.40;99.90;;;;;;5121446;27;19966;-82
2022/04/09 13:05:41;;;;;;;;;;;13.60;99.90;;;;;;5126433;27;20371;-81
2022/04/09 13:08:06;;;;;;;;;;;13.50;99.90;;;;;;5124232;27;19924;-82
2022/04/09 13:10:34;;;;;;;;;;;13.10;99.90;;;;;;5104849;27;19998;-83
2022/04/09 13:13:00;;;;;;;;;;;12.30;99.90;;;;;;5124650;27;20399;-81
2022/04/09 13:15:26;;;;;;;;;;;11.80;99.90;;;;;;5120324;27;19916;-81
2022/04/09 13:17:51;;;;;;;;;;;11.40;99.90;;;;;;5105910;28;20535;-82
2022/04/09 13:20:18;;;;;;;;;;;11.10;99.90;;;;;;5122722;27;19916;-82
2022/04/09 13:22:44;;;;;;;;;;;11.50;99.90;;;;;;5121175;27;19924;-81
2022/04/09 13:25:09;;;;;;;;;;;11.40;99.90;;;;;;5120165;27;19920;-84
2022/04/09 13:27:36;;;;;;;;;;;11.10;99.90;;;;;;5118486;27;20327;-83
2022/04/09 13:30:02;;;;;;;;;;;11.10;99.90;;;;;;5108365;27;19919;-82
2022/04/09 13:32:30;;;;;;;;;;;11.40;99.90;;;;;;5125458;27;19915;-83
2022/04/09 13:34:55;;;;;;;;;;;11.80;99.90;;;;;;5128890;27;19922;-82
2022/04/09 13:37:22;;;;;;;;;;;11.40;99.90;;;;;;5128500;27;19919;-81
2022/04/09 13:39:48;;;;;;;;;;;11.40;99.90;;;;;;5123856;27;20389;-84
2022/04/09 13:42:14;;;;;;;;;;;11.10;99.90;;;;;;5116122;27;19916;-83
2022/04/09 13:44:43;;;;;;;;;;;10.80;99.90;;;;;;5125357;27;19923;-83
2022/04/09 13:47:10;;;;;;;;;;;10.80;99.90;;;;;;5123865;27;20393;-82
2022/04/09 13:49:35;;;;;;;;;;;10.60;99.90;;;;;;5120640;27;19962;-83
2022/04/09 13:52:01;;;;;;;;;;;10.70;99.90;;;;;;5131119;27;19973;-82
2022/04/09 13:54:27;;;;;;;;;;;10.90;99.90;;;;;;5120792;27;20385;-83
2022/04/09 13:56:53;;;;;;;;;;;10.90;99.90;;;;;;5124261;27;19951;-83
2022/04/09 13:59:18;;;;;;;;;;;10.90;99.90;;;;;;5122995;27;19922;-84
2022/04/09 14:01:44;;;;;;;;;;;10.90;99.90;;;;;;5123176;27;19915;-82
2022/04/09 14:04:10;;;;;;;;;;;10.70;99.90;;;;;;5122056;27;19923;-83
2022/04/09 14:06:35;;;;;;;;;;;10.60;99.90;;;;;;5118272;27;19922;-82
2022/04/09 14:09:01;;;;;;;;;;;10.10;99.90;;;;;;5123110;27;19919;-80
2022/04/09 14:11:27;;;;;;;;;;;9.90;99.90;;;;;;5103970;27;19915;-82
2022/04/09 14:13:53;;;;;;;;;;;9.80;99.90;;;;;;5106099;27;19915;-80
2022/04/09 14:16:19;;;;;;;;;;;9.70;99.90;;;;;;5118861;27;19978;-83
2022/04/09 14:18:44;;;;;;;;;;;9.60;99.90;;;;;;5123375;27;19915;-82
2022/04/09 14:21:10;;;;;;;;;;;9.50;99.90;;;;;;5107660;27;20328;-81
2022/04/09 14:23:35;;;;;;;;;;;9.50;99.90;;;;;;5118869;27;19942;-82